createdAt,value
2023-04-04T00:01:30.076Z,1.40
2023-04-04T00:06:34.251Z,1.33
2023-04-04T00:11:37.101Z,1.18
2023-04-04T00:16:40.469Z,1.10
2023-04-04T00:21:44.790Z,1.02
2023-04-04T00:26:47.537Z,1.09
2023-04-04T00:31:50.366Z,1.00
2023-04-04T00:36:54.690Z,0.94
2023-04-04T00:41:58.361Z,0.93
2023-04-04T00:47:01.315Z,0.95
2023-04-04T00:52:07.758Z,1.02
2023-04-04T00:57:10.747Z,0.84
2023-04-04T01:02:13.719Z,0.75
2023-04-04T01:07:17.981Z,0.79
2023-04-04T01:12:21.008Z,0.91
2023-04-04T01:17:25.084Z,0.89
2023-04-04T01:22:31.313Z,0.85
2023-04-04T01:27:35.980Z,0.86
2023-04-04T01:32:51.622Z,0.96
2023-04-04T01:38:06.694Z,1.03
2023-04-04T01:43:11.060Z,0.94
2023-04-04T01:48:17.069Z,0.92
2023-04-04T01:53:24.153Z,0.83
2023-04-04T01:58:28.403Z,0.74
2023-04-04T02:03:31.578Z,0.63
2023-04-04T02:08:34.629Z,0.80
2023-04-04T02:13:41.403Z,0.88
2023-04-04T02:18:45.104Z,0.78
2023-04-04T02:23:47.955Z,0.75
2023-04-04T02:28:52.124Z,0.71
2023-04-04T02:33:54.947Z,0.60
2023-04-04T02:38:58.158Z,0.58
2023-04-04T02:44:04.046Z,0.55
2023-04-04T02:49:08.210Z,0.48
2023-04-04T02:54:12.753Z,0.47
2023-04-04T02:59:21.198Z,0.41
2023-04-04T03:04:24.034Z,0.46
2023-04-04T03:09:26.860Z,0.40
2023-04-04T03:14:31.078Z,0.28
2023-04-04T03:19:34.569Z,0.19
2023-04-04T03:31:27.425Z,0.00
2023-04-04T03:36:30.376Z,-0.22
2023-04-04T03:41:33.093Z,-0.36
2023-04-04T03:46:37.189Z,-0.45
2023-04-04T03:51:40.176Z,-0.36
2023-04-04T03:56:43.083Z,-0.30
2023-04-04T04:01:47.216Z,-0.38
2023-04-04T04:06:50.003Z,-0.39
2023-04-04T04:11:52.871Z,-0.42
2023-04-04T04:16:56.974Z,-0.42
2023-04-04T04:21:59.871Z,-0.39
2023-04-04T04:27:04.049Z,-0.41
2023-04-04T04:32:08.781Z,-0.48
2023-04-04T04:37:17.756Z,-0.49
2023-04-04T04:42:24.551Z,-0.53
2023-04-04T04:47:33.708Z,-0.55
2023-04-04T04:52:40.740Z,-0.57
2023-04-04T04:57:43.606Z,-0.55
2023-04-04T05:02:56.027Z,-0.63
2023-04-04T05:08:08.117Z,-0.62
2023-04-04T05:13:15.060Z,-0.59
2023-04-04T05:18:23.079Z,-0.53
2023-04-04T05:23:26.375Z,-0.43
2023-04-04T05:28:29.728Z,-0.37
2023-04-04T05:33:37.814Z,-0.29
2023-04-04T05:38:48.038Z,-0.11
2023-04-04T05:43:54.537Z,-0.06
2023-04-04T05:49:01.397Z,0.07
2023-04-04T05:54:07.413Z,0.29
2023-04-04T05:59:11.555Z,0.29
2023-04-04T06:04:27.852Z,0.26
2023-04-04T06:09:33.096Z,0.33
2023-04-04T06:14:36.408Z,0.35
2023-04-04T06:19:42.893Z,0.56
2023-04-04T06:24:45.691Z,0.77
2023-04-04T06:29:49.407Z,0.90
2023-04-04T06:34:57.029Z,1.08
2023-04-04T06:40:14.606Z,0.68
2023-04-04T06:45:19.154Z,0.78
2023-04-04T06:50:23.645Z,0.54
2023-04-04T06:55:28.422Z,1.41
2023-04-04T07:00:31.563Z,1.84
2023-04-04T07:05:39.375Z,2.01
2023-04-04T07:10:42.629Z,2.59
2023-04-04T07:15:48.817Z,2.79
2023-04-04T07:20:53.004Z,3.39
2023-04-04T07:25:55.934Z,3.93
2023-04-04T07:31:00.781Z,4.31
2023-04-04T07:36:05.746Z,5.11
2023-04-04T07:41:11.709Z,5.58
2023-04-04T07:46:14.537Z,5.75
2023-04-04T07:51:20.741Z,5.89
2023-04-04T07:56:23.561Z,6.25
2023-04-04T08:01:26.978Z,6.53
2023-04-04T08:06:31.102Z,6.93
2023-04-04T08:11:33.911Z,6.68
2023-04-04T08:16:36.708Z,7.27
2023-04-04T08:21:40.848Z,7.89
2023-04-04T08:26:47.009Z,7.28
2023-04-04T08:31:54.599Z,7.78
2023-04-04T08:36:59.955Z,8.47
2023-04-04T08:42:05.617Z,8.57
2023-04-04T08:47:10.690Z,7.89
2023-04-04T08:52:19.174Z,7.53
2023-04-04T08:57:22.244Z,7.70
2023-04-04T09:02:30.521Z,8.34
2023-04-04T09:07:37.172Z,8.86
2023-04-04T09:12:45.475Z,8.34
2023-04-04T09:17:49.028Z,8.66
2023-04-04T09:22:53.165Z,8.55
2023-04-04T09:27:57.974Z,8.46
2023-04-04T09:33:06.589Z,8.69
2023-04-04T09:38:11.002Z,9.00
2023-04-04T09:43:14.573Z,10.57
2023-04-04T09:48:27.239Z,11.21
2023-04-04T09:53:31.262Z,11.39
2023-04-04T09:58:36.276Z,10.90
2023-04-04T10:03:39.984Z,10.87
2023-04-04T10:08:45.153Z,10.41
2023-04-04T10:13:47.938Z,10.50
2023-04-04T10:18:51.438Z,11.42
2023-04-04T10:23:57.391Z,12.02
2023-04-04T10:29:00.594Z,11.50
2023-04-04T10:34:12.668Z,12.28
2023-04-04T10:39:25.032Z,12.66
2023-04-04T10:44:31.795Z,13.19
2023-04-04T10:49:36.186Z,12.78
2023-04-04T10:54:41.195Z,12.13
2023-04-04T10:59:57.981Z,13.09
2023-04-04T11:05:11.687Z,14.74
2023-04-04T11:10:22.109Z,15.68
2023-04-04T11:15:26.471Z,15.85
2023-04-04T11:20:34.484Z,15.43
2023-04-04T11:25:41.129Z,14.96
2023-04-04T11:30:48.766Z,15.89
2023-04-04T11:35:51.903Z,15.18
2023-04-04T11:40:57.026Z,15.11
2023-04-04T11:46:08.838Z,15.23
2023-04-04T11:51:12.798Z,15.25
2023-04-04T11:56:18.007Z,15.31
2023-04-04T12:01:21.681Z,15.50
2023-04-04T12:06:25.441Z,16.32
2023-04-04T12:11:31.066Z,17.07
2023-04-04T12:16:33.857Z,16.85
2023-04-04T12:21:36.646Z,15.65
2023-04-04T12:26:43.074Z,15.93
2023-04-04T12:31:47.507Z,16.22
2023-04-04T12:36:54.085Z,16.20
2023-04-04T12:41:59.630Z,16.64
2023-04-04T12:47:04.900Z,16.35
2023-04-04T12:52:09.156Z,16.57
2023-04-04T12:57:18.385Z,16.56
2023-04-04T13:02:23.615Z,17.28
2023-04-04T13:07:28.453Z,17.18
2023-04-04T13:12:58.336Z,17.55
2023-04-04T13:18:15.384Z,17.91
2023-04-04T13:23:18.400Z,15.74
2023-04-04T13:28:22.507Z,16.42
2023-04-04T13:33:25.529Z,16.86
2023-04-04T13:38:28.894Z,16.52
2023-04-04T13:43:33.025Z,16.91
2023-04-04T13:48:35.766Z,16.63
2023-04-04T13:53:38.546Z,17.01
2023-04-04T13:58:43.099Z,16.83
2023-04-04T14:03:46.093Z,16.45
2023-04-04T14:08:48.877Z,17.22
2023-04-04T14:13:53.136Z,17.35
2023-04-04T14:18:56.149Z,16.64
2023-04-04T14:23:58.975Z,15.92
2023-04-04T14:29:03.395Z,16.05
2023-04-04T14:34:06.750Z,16.05
2023-04-04T14:39:09.567Z,16.15
2023-04-04T14:44:14.193Z,15.86
2023-04-04T14:49:16.926Z,15.96
2023-04-04T14:54:19.728Z,16.11
2023-04-04T14:59:23.986Z,15.97
2023-04-04T15:04:27.201Z,16.02
2023-04-04T15:09:30.776Z,16.11
2023-04-04T15:14:35.036Z,16.07
2023-04-04T15:19:37.839Z,15.91
2023-04-04T15:24:40.892Z,16.21
2023-04-04T15:29:45.034Z,15.93
2023-04-04T15:34:47.807Z,15.98
2023-04-04T15:39:53.410Z,15.97
2023-04-04T15:44:59.345Z,15.87
2023-04-04T15:50:02.097Z,16.21
2023-04-04T15:55:07.448Z,16.31
2023-04-04T16:00:13.211Z,15.91
2023-04-04T16:05:16.022Z,15.81
2023-04-04T16:10:18.786Z,15.26
2023-04-04T16:15:22.988Z,14.81
2023-04-04T16:20:26.544Z,14.35
2023-04-04T16:25:29.662Z,13.07
2023-04-04T16:30:33.946Z,12.34
2023-04-04T16:35:37.361Z,11.71
2023-04-04T16:40:40.386Z,11.06
2023-04-04T16:45:44.745Z,10.73
2023-04-04T16:50:47.484Z,10.79
2023-04-04T16:55:50.099Z,10.59
2023-04-04T17:00:54.266Z,10.35
2023-04-04T17:05:59.828Z,10.01
2023-04-04T17:11:02.729Z,9.99
2023-04-04T17:16:07.373Z,9.82
2023-04-04T17:21:10.281Z,9.54
2023-04-04T17:26:13.306Z,9.35
2023-04-04T17:31:18.385Z,8.96
2023-04-04T17:36:21.306Z,8.69
2023-04-04T17:41:24.306Z,8.51
2023-04-04T17:46:28.592Z,8.34
2023-04-04T17:51:31.950Z,8.12
2023-04-04T17:56:34.678Z,7.98
2023-04-04T18:01:40.205Z,7.84
2023-04-04T18:06:43.398Z,7.81
2023-04-04T18:11:46.308Z,7.65
2023-04-04T18:16:50.402Z,7.51
2023-04-04T18:21:54.313Z,7.38
2023-04-04T18:26:57.858Z,7.27
2023-04-04T18:32:02.766Z,7.12
2023-04-04T18:37:06.266Z,7.04
2023-04-04T18:42:10.530Z,6.98
2023-04-04T18:47:14.698Z,6.95
2023-04-04T18:52:17.505Z,6.85
2023-04-04T18:57:20.603Z,6.76
2023-04-04T19:02:24.809Z,6.72
2023-04-04T19:07:29.050Z,6.63
2023-04-04T19:12:31.924Z,6.64
2023-04-04T19:17:36.147Z,6.67
2023-04-04T19:22:39.023Z,6.60
2023-04-04T19:27:41.822Z,6.60
2023-04-04T19:32:45.951Z,6.59
2023-04-04T19:37:48.827Z,6.56
2023-04-04T19:42:51.611Z,6.55
2023-04-04T19:47:56.040Z,6.40
2023-04-04T19:52:58.954Z,6.38
2023-04-04T19:58:02.544Z,6.36
2023-04-04T20:03:08.852Z,6.28
2023-04-04T20:08:11.652Z,6.24
2023-04-04T20:13:14.941Z,6.13
2023-04-04T20:18:24.057Z,6.03
2023-04-04T20:23:27.314Z,6.03
2023-04-04T20:28:30.291Z,6.06
2023-04-04T20:33:36.700Z,5.99
2023-04-04T20:38:41.660Z,5.99
2023-04-04T20:43:51.541Z,6.01
2023-04-04T20:48:56.839Z,6.00
2023-04-04T20:54:01.761Z,5.96
2023-04-04T20:59:07.357Z,5.93
2023-04-04T21:04:25.050Z,5.87
2023-04-04T21:09:28.840Z,5.86
2023-04-04T21:14:37.275Z,5.85
2023-04-04T21:19:41.410Z,5.76
2023-04-04T21:24:44.176Z,5.67
2023-04-04T21:29:47.019Z,5.50
2023-04-04T21:34:51.125Z,5.35
2023-04-04T21:39:59.862Z,5.15
2023-04-04T21:45:02.579Z,5.04
2023-04-04T21:50:08.253Z,4.98
2023-04-04T21:55:11.158Z,4.91
2023-04-04T22:00:15.258Z,4.84
2023-04-04T22:05:21.632Z,4.86
2023-04-04T22:10:27.495Z,4.55
2023-04-04T22:15:30.342Z,4.26
2023-04-04T22:20:34.570Z,4.20
2023-04-04T22:25:37.441Z,4.23
2023-04-04T22:30:42.209Z,4.26
2023-04-04T22:35:46.776Z,4.23
2023-04-04T22:40:49.602Z,4.27
2023-04-04T22:45:53.649Z,4.32
2023-04-04T22:50:58.671Z,4.07
2023-04-04T22:56:01.623Z,3.90
2023-04-04T23:01:04.638Z,3.85
2023-04-04T23:06:08.900Z,3.71
2023-04-04T23:11:11.678Z,3.71
2023-04-04T23:16:14.811Z,3.75
2023-04-04T23:21:18.998Z,3.71
2023-04-04T23:26:21.805Z,3.67
2023-04-04T23:31:25.686Z,3.57
2023-04-04T23:36:30.054Z,3.49
2023-04-04T23:41:33.251Z,3.44
2023-04-04T23:46:36.250Z,3.26
2023-04-04T23:51:40.410Z,3.06
2023-04-04T23:56:43.207Z,3.10
